sensor_id;sensor_type;location;lat;lon;timestamp;temperature;humidity
5962;DHT22;3007;50.770;0.250;2023-02-26T00:01:43;2.90;99.90
5962;DHT22;3007;50.770;0.250;2023-02-26T00:04:10;2.90;99.90
5962;DHT22;3007;50.770;0.250;2023-02-26T00:06:39;3.00;99.90
5962;DHT22;3007;50.770;0.250;2023-02-26T00:09:23;3.10;99.90
5962;DHT22;3007;50.770;0.250;2023-02-26T00:11:50;3.10;99.90
5962;DHT22;3007;50.770;0.250;2023-02-26T00:14:18;3.10;99.90
5962;DHT22;3007;50.770;0.250;2023-02-26T00:16:49;3.00;99.90
5962;DHT22;3007;50.770;0.250;2023-02-26T00:19:19;3.10;99.90
5962;DHT22;3007;50.770;0.250;2023-02-26T00:21:49;3.10;99.90
5962;DHT22;3007;50.770;0.250;2023-02-26T00:24:19;3.10;99.90
5962;DHT22;3007;50.770;0.250;2023-02-26T00:26:49;3.20;99.90
5962;DHT22;3007;50.770;0.250;2023-02-26T00:29:20;3.20;99.90
5962;DHT22;3007;50.770;0.250;2023-02-26T00:31:48;3.20;99.90
5962;DHT22;3007;50.770;0.250;2023-02-26T00:34:15;3.20;99.90
5962;DHT22;3007;50.770;0.250;2023-02-26T00:36:46;3.20;99.90
5962;DHT22;3007;50.770;0.250;2023-02-26T00:39:29;3.20;99.90
5962;DHT22;3007;50.770;0.250;2023-02-26T00:42:01;3.20;99.90
5962;DHT22;3007;50.770;0.250;2023-02-26T00:44:35;3.20;99.90
5962;DHT22;3007;50.770;0.250;2023-02-26T00:47:09;3.10;99.90
5962;DHT22;3007;50.770;0.250;2023-02-26T00:49:52;3.10;99.90
5962;DHT22;3007;50.770;0.250;2023-02-26T00:52:28;3.10;99.90
5962;DHT22;3007;50.770;0.250;2023-02-26T00:55:00;3.10;99.90
5962;DHT22;3007;50.770;0.250;2023-02-26T00:57:32;3.10;99.90
5962;DHT22;3007;50.770;0.250;2023-02-26T01:00:00;3.10;99.90
5962;DHT22;3007;50.770;0.250;2023-02-26T01:02:27;3.20;99.90
5962;DHT22;3007;50.770;0.250;2023-02-26T01:04:54;3.20;99.90
5962;DHT22;3007;50.770;0.250;2023-02-26T01:07:22;3.20;99.90
5962;DHT22;3007;50.770;0.250;2023-02-26T01:09:50;3.20;99.90
5962;DHT22;3007;50.770;0.250;2023-02-26T01:12:18;3.20;99.90
5962;DHT22;3007;50.770;0.250;2023-02-26T01:14:45;3.20;99.90
5962;DHT22;3007;50.770;0.250;2023-02-26T01:17:18;3.20;99.90
5962;DHT22;3007;50.770;0.250;2023-02-26T01:19:52;3.20;99.90
5962;DHT22;3007;50.770;0.250;2023-02-26T01:22:22;3.20;99.90
5962;DHT22;3007;50.770;0.250;2023-02-26T01:24:55;3.20;99.90
5962;DHT22;3007;50.770;0.250;2023-02-26T01:27:25;3.10;99.90
5962;DHT22;3007;50.770;0.250;2023-02-26T01:29:52;3.10;99.90
5962;DHT22;3007;50.770;0.250;2023-02-26T01:32:25;3.10;99.90
5962;DHT22;3007;50.770;0.250;2023-02-26T01:35:00;3.10;99.90
5962;DHT22;3007;50.770;0.250;2023-02-26T01:37:32;3.00;99.90
5962;DHT22;3007;50.770;0.250;2023-02-26T01:40:33;3.00;99.90
5962;DHT22;3007;50.770;0.250;2023-02-26T01:43:05;2.90;99.90
5962;DHT22;3007;50.770;0.250;2023-02-26T01:45:35;2.80;99.90
5962;DHT22;3007;50.770;0.250;2023-02-26T01:48:11;2.80;99.90
5962;DHT22;3007;50.770;0.250;2023-02-26T01:50:43;2.70;99.90
5962;DHT22;3007;50.770;0.250;2023-02-26T01:53:19;2.70;99.90
5962;DHT22;3007;50.770;0.250;2023-02-26T01:55:49;2.70;99.90
5962;DHT22;3007;50.770;0.250;2023-02-26T01:58:17;2.70;99.90
5962;DHT22;3007;50.770;0.250;2023-02-26T02:00:45;2.70;99.90
5962;DHT22;3007;50.770;0.250;2023-02-26T02:03:13;2.80;99.90
5962;DHT22;3007;50.770;0.250;2023-02-26T02:05:42;2.80;99.90
5962;DHT22;3007;50.770;0.250;2023-02-26T02:08:11;2.90;99.90
5962;DHT22;3007;50.770;0.250;2023-02-26T02:10:41;2.90;99.90
5962;DHT22;3007;50.770;0.250;2023-02-26T02:13:14;2.90;99.90
5962;DHT22;3007;50.770;0.250;2023-02-26T02:15:48;3.00;99.90
5962;DHT22;3007;50.770;0.250;2023-02-26T02:18:22;3.00;99.90
5962;DHT22;3007;50.770;0.250;2023-02-26T02:21:05;3.10;99.90
5962;DHT22;3007;50.770;0.250;2023-02-26T02:23:42;3.00;99.90
5962;DHT22;3007;50.770;0.250;2023-02-26T02:29:37;3.10;99.90
5962;DHT22;3007;50.770;0.250;2023-02-26T02:32:15;3.10;99.90
5962;DHT22;3007;50.770;0.250;2023-02-26T02:34:46;3.10;99.90
5962;DHT22;3007;50.770;0.250;2023-02-26T02:37:18;3.10;99.90
5962;DHT22;3007;50.770;0.250;2023-02-26T02:39:50;3.00;99.90
5962;DHT22;3007;50.770;0.250;2023-02-26T02:42:22;3.00;99.90
5962;DHT22;3007;50.770;0.250;2023-02-26T02:44:56;2.90;99.90
5962;DHT22;3007;50.770;0.250;2023-02-26T02:47:26;2.90;99.90
5962;DHT22;3007;50.770;0.250;2023-02-26T02:50:00;2.90;99.90
5962;DHT22;3007;50.770;0.250;2023-02-26T02:52:32;2.90;99.90
5962;DHT22;3007;50.770;0.250;2023-02-26T02:55:04;3.00;99.90
5962;DHT22;3007;50.770;0.250;2023-02-26T02:57:34;3.00;99.90
5962;DHT22;3007;50.770;0.250;2023-02-26T03:00:06;3.00;99.90
5962;DHT22;3007;50.770;0.250;2023-02-26T03:02:41;3.00;99.90
5962;DHT22;3007;50.770;0.250;2023-02-26T03:05:10;3.00;99.90
5962;DHT22;3007;50.770;0.250;2023-02-26T03:07:42;3.00;99.90
5962;DHT22;3007;50.770;0.250;2023-02-26T03:10:11;3.00;99.90
5962;DHT22;3007;50.770;0.250;2023-02-26T03:12:41;3.00;99.90
5962;DHT22;3007;50.770;0.250;2023-02-26T03:15:09;3.00;99.90
5962;DHT22;3007;50.770;0.250;2023-02-26T03:17:44;3.00;99.90
5962;DHT22;3007;50.770;0.250;2023-02-26T03:20:18;3.00;99.90
5962;DHT22;3007;50.770;0.250;2023-02-26T03:23:01;3.00;99.90
5962;DHT22;3007;50.770;0.250;2023-02-26T03:25:37;3.00;99.90
5962;DHT22;3007;50.770;0.250;2023-02-26T03:28:08;3.10;99.90
5962;DHT22;3007;50.770;0.250;2023-02-26T03:30:40;3.00;99.90
5962;DHT22;3007;50.770;0.250;2023-02-26T03:33:15;3.10;99.90
5962;DHT22;3007;50.770;0.250;2023-02-26T03:35:47;3.00;99.90
5962;DHT22;3007;50.770;0.250;2023-02-26T03:38:23;3.00;99.90
5962;DHT22;3007;50.770;0.250;2023-02-26T03:40:54;3.00;99.90
5962;DHT22;3007;50.770;0.250;2023-02-26T03:43:25;2.90;99.90
5962;DHT22;3007;50.770;0.250;2023-02-26T03:45:57;2.80;99.90
5962;DHT22;3007;50.770;0.250;2023-02-26T03:48:28;2.80;99.90
5962;DHT22;3007;50.770;0.250;2023-02-26T03:50:59;2.60;99.90
5962;DHT22;3007;50.770;0.250;2023-02-26T03:53:31;2.60;99.90
5962;DHT22;3007;50.770;0.250;2023-02-26T03:56:02;2.50;99.90
5962;DHT22;3007;50.770;0.250;2023-02-26T03:58:32;2.40;99.90
5962;DHT22;3007;50.770;0.250;2023-02-26T04:01:03;2.30;99.90
5962;DHT22;3007;50.770;0.250;2023-02-26T04:03:39;2.30;99.90
5962;DHT22;3007;50.770;0.250;2023-02-26T04:06:08;2.20;99.90
5962;DHT22;3007;50.770;0.250;2023-02-26T04:08:36;2.10;99.90
5962;DHT22;3007;50.770;0.250;2023-02-26T04:11:05;2.10;99.90
5962;DHT22;3007;50.770;0.250;2023-02-26T04:13:34;2.10;99.90
5962;DHT22;3007;50.770;0.250;2023-02-26T04:16:01;2.00;99.90
5962;DHT22;3007;50.770;0.250;2023-02-26T04:18:28;2.00;99.90
5962;DHT22;3007;50.770;0.250;2023-02-26T04:20:56;2.00;99.90
5962;DHT22;3007;50.770;0.250;2023-02-26T04:23:23;2.00;99.90
5962;DHT22;3007;50.770;0.250;2023-02-26T04:25:50;1.90;99.90
5962;DHT22;3007;50.770;0.250;2023-02-26T04:28:17;1.90;99.90
5962;DHT22;3007;50.770;0.250;2023-02-26T04:30:44;1.90;99.90
5962;DHT22;3007;50.770;0.250;2023-02-26T04:33:12;1.90;99.90
5962;DHT22;3007;50.770;0.250;2023-02-26T04:35:39;1.90;99.90
5962;DHT22;3007;50.770;0.250;2023-02-26T04:38:08;1.90;99.90
5962;DHT22;3007;50.770;0.250;2023-02-26T04:40:34;1.90;99.90
5962;DHT22;3007;50.770;0.250;2023-02-26T04:43:01;1.90;99.90
5962;DHT22;3007;50.770;0.250;2023-02-26T04:45:28;2.00;99.90
5962;DHT22;3007;50.770;0.250;2023-02-26T04:47:55;2.00;99.90
5962;DHT22;3007;50.770;0.250;2023-02-26T04:50:22;2.10;99.90
5962;DHT22;3007;50.770;0.250;2023-02-26T04:52:50;2.10;99.90
5962;DHT22;3007;50.770;0.250;2023-02-26T04:55:18;2.10;99.90
5962;DHT22;3007;50.770;0.250;2023-02-26T04:57:45;2.10;99.90
5962;DHT22;3007;50.770;0.250;2023-02-26T05:00:13;2.10;99.90
5962;DHT22;3007;50.770;0.250;2023-02-26T05:02:41;2.00;99.90
5962;DHT22;3007;50.770;0.250;2023-02-26T05:05:08;2.00;99.90
5962;DHT22;3007;50.770;0.250;2023-02-26T05:07:35;2.00;99.90
5962;DHT22;3007;50.770;0.250;2023-02-26T05:10:02;1.90;99.90
5962;DHT22;3007;50.770;0.250;2023-02-26T05:12:31;1.90;99.90
5962;DHT22;3007;50.770;0.250;2023-02-26T05:14:58;1.90;99.90
5962;DHT22;3007;50.770;0.250;2023-02-26T05:17:25;1.80;99.90
5962;DHT22;3007;50.770;0.250;2023-02-26T05:19:52;1.80;99.90
5962;DHT22;3007;50.770;0.250;2023-02-26T05:22:19;1.80;99.90
5962;DHT22;3007;50.770;0.250;2023-02-26T05:24:46;1.70;99.90
5962;DHT22;3007;50.770;0.250;2023-02-26T05:27:13;1.70;99.90
5962;DHT22;3007;50.770;0.250;2023-02-26T05:29:41;1.60;99.90
5962;DHT22;3007;50.770;0.250;2023-02-26T05:32:10;1.70;99.90
5962;DHT22;3007;50.770;0.250;2023-02-26T05:34:37;1.70;99.90
5962;DHT22;3007;50.770;0.250;2023-02-26T05:37:04;1.70;99.90
5962;DHT22;3007;50.770;0.250;2023-02-26T05:39:30;1.60;99.90
5962;DHT22;3007;50.770;0.250;2023-02-26T05:41:58;1.60;99.90
5962;DHT22;3007;50.770;0.250;2023-02-26T05:44:25;1.60;99.90
5962;DHT22;3007;50.770;0.250;2023-02-26T05:46:53;1.50;99.90
5962;DHT22;3007;50.770;0.250;2023-02-26T05:49:20;1.50;99.90
5962;DHT22;3007;50.770;0.250;2023-02-26T05:51:47;1.50;99.90
5962;DHT22;3007;50.770;0.250;2023-02-26T05:54:14;1.50;99.90
5962;DHT22;3007;50.770;0.250;2023-02-26T05:56:41;1.60;99.90
5962;DHT22;3007;50.770;0.250;2023-02-26T05:59:08;1.50;99.90
5962;DHT22;3007;50.770;0.250;2023-02-26T06:01:35;1.50;99.90
5962;DHT22;3007;50.770;0.250;2023-02-26T06:04:05;1.50;99.90
5962;DHT22;3007;50.770;0.250;2023-02-26T06:06:32;1.60;99.90
5962;DHT22;3007;50.770;0.250;2023-02-26T06:08:59;1.60;99.90
5962;DHT22;3007;50.770;0.250;2023-02-26T06:11:27;1.60;99.90
5962;DHT22;3007;50.770;0.250;2023-02-26T06:13:54;1.60;99.90
5962;DHT22;3007;50.770;0.250;2023-02-26T06:16:20;1.60;99.90
5962;DHT22;3007;50.770;0.250;2023-02-26T06:18:47;1.70;99.90
5962;DHT22;3007;50.770;0.250;2023-02-26T06:21:17;1.60;99.90
5962;DHT22;3007;50.770;0.250;2023-02-26T06:23:44;1.60;99.90
5962;DHT22;3007;50.770;0.250;2023-02-26T06:26:11;1.60;99.90
5962;DHT22;3007;50.770;0.250;2023-02-26T06:28:38;1.70;99.90
5962;DHT22;3007;50.770;0.250;2023-02-26T06:31:05;1.70;99.90
5962;DHT22;3007;50.770;0.250;2023-02-26T06:33:32;1.80;99.90
5962;DHT22;3007;50.770;0.250;2023-02-26T06:35:59;1.90;99.90
5962;DHT22;3007;50.770;0.250;2023-02-26T06:38:28;2.00;99.90
5962;DHT22;3007;50.770;0.250;2023-02-26T06:40:55;2.00;99.90
5962;DHT22;3007;50.770;0.250;2023-02-26T06:43:22;2.10;99.90
5962;DHT22;3007;50.770;0.250;2023-02-26T06:45:49;2.20;99.90
5962;DHT22;3007;50.770;0.250;2023-02-26T06:48:16;2.30;99.90
5962;DHT22;3007;50.770;0.250;2023-02-26T06:50:43;2.30;99.90
5962;DHT22;3007;50.770;0.250;2023-02-26T06:53:10;2.40;99.90
5962;DHT22;3007;50.770;0.250;2023-02-26T06:55:42;2.40;99.90
5962;DHT22;3007;50.770;0.250;2023-02-26T06:58:09;2.50;99.90
5962;DHT22;3007;50.770;0.250;2023-02-26T07:00:36;2.50;99.90
5962;DHT22;3007;50.770;0.250;2023-02-26T07:03:05;2.50;99.90
5962;DHT22;3007;50.770;0.250;2023-02-26T07:05:32;2.40;99.90
5962;DHT22;3007;50.770;0.250;2023-02-26T07:07:58;2.40;99.90
5962;DHT22;3007;50.770;0.250;2023-02-26T07:10:25;2.30;99.90
5962;DHT22;3007;50.770;0.250;2023-02-26T07:12:54;2.30;99.90
5962;DHT22;3007;50.770;0.250;2023-02-26T07:15:20;2.30;99.90
5962;DHT22;3007;50.770;0.250;2023-02-26T07:17:47;2.40;99.90
5962;DHT22;3007;50.770;0.250;2023-02-26T07:20:14;2.40;99.90
5962;DHT22;3007;50.770;0.250;2023-02-26T07:22:42;2.40;99.90
5962;DHT22;3007;50.770;0.250;2023-02-26T07:25:10;2.50;99.90
5962;DHT22;3007;50.770;0.250;2023-02-26T07:27:37;2.50;99.90
5962;DHT22;3007;50.770;0.250;2023-02-26T07:30:07;2.60;99.90
5962;DHT22;3007;50.770;0.250;2023-02-26T07:32:35;2.70;99.90
5962;DHT22;3007;50.770;0.250;2023-02-26T07:35:02;2.80;99.90
5962;DHT22;3007;50.770;0.250;2023-02-26T07:37:29;2.80;99.90
5962;DHT22;3007;50.770;0.250;2023-02-26T07:39:56;2.80;99.90
5962;DHT22;3007;50.770;0.250;2023-02-26T07:42:23;2.90;99.90
5962;DHT22;3007;50.770;0.250;2023-02-26T07:44:50;2.80;99.90
5962;DHT22;3007;50.770;0.250;2023-02-26T07:47:18;2.80;99.90
5962;DHT22;3007;50.770;0.250;2023-02-26T07:49:45;2.80;99.90
5962;DHT22;3007;50.770;0.250;2023-02-26T07:52:12;2.90;99.90
5962;DHT22;3007;50.770;0.250;2023-02-26T07:54:39;2.90;99.90
5962;DHT22;3007;50.770;0.250;2023-02-26T07:57:06;2.90;99.90
5962;DHT22;3007;50.770;0.250;2023-02-26T07:59:33;2.90;99.90
5962;DHT22;3007;50.770;0.250;2023-02-26T08:02:00;3.00;99.90
5962;DHT22;3007;50.770;0.250;2023-02-26T08:04:28;3.00;99.90
5962;DHT22;3007;50.770;0.250;2023-02-26T08:06:57;3.00;99.90
5962;DHT22;3007;50.770;0.250;2023-02-26T08:09:25;3.10;99.90
5962;DHT22;3007;50.770;0.250;2023-02-26T08:11:52;3.10;99.90
5962;DHT22;3007;50.770;0.250;2023-02-26T08:14:19;3.20;99.90
5962;DHT22;3007;50.770;0.250;2023-02-26T08:16:46;3.20;99.90
5962;DHT22;3007;50.770;0.250;2023-02-26T08:19:13;3.30;99.90
5962;DHT22;3007;50.770;0.250;2023-02-26T08:21:41;3.40;99.90
5962;DHT22;3007;50.770;0.250;2023-02-26T08:24:09;3.50;99.90
5962;DHT22;3007;50.770;0.250;2023-02-26T08:26:37;3.60;99.90
5962;DHT22;3007;50.770;0.250;2023-02-26T08:29:04;3.70;99.90
5962;DHT22;3007;50.770;0.250;2023-02-26T08:31:31;3.80;99.90
5962;DHT22;3007;50.770;0.250;2023-02-26T08:33:59;3.90;99.90
5962;DHT22;3007;50.770;0.250;2023-02-26T08:36:25;3.90;99.90
5962;DHT22;3007;50.770;0.250;2023-02-26T08:38:54;4.00;99.90
5962;DHT22;3007;50.770;0.250;2023-02-26T08:41:21;4.10;99.90
5962;DHT22;3007;50.770;0.250;2023-02-26T08:43:48;4.00;99.90
5962;DHT22;3007;50.770;0.250;2023-02-26T08:46:15;4.00;99.90
5962;DHT22;3007;50.770;0.250;2023-02-26T08:48:42;4.00;99.90
5962;DHT22;3007;50.770;0.250;2023-02-26T08:51:09;4.00;99.90
5962;DHT22;3007;50.770;0.250;2023-02-26T08:53:36;4.00;99.90
5962;DHT22;3007;50.770;0.250;2023-02-26T08:56:06;4.00;99.90
5962;DHT22;3007;50.770;0.250;2023-02-26T08:58:33;4.00;99.90
5962;DHT22;3007;50.770;0.250;2023-02-26T09:00:59;4.00;99.90
5962;DHT22;3007;50.770;0.250;2023-02-26T09:03:26;4.10;99.90
5962;DHT22;3007;50.770;0.250;2023-02-26T09:05:53;4.10;99.90
5962;DHT22;3007;50.770;0.250;2023-02-26T09:08:20;4.20;99.90
5962;DHT22;3007;50.770;0.250;2023-02-26T09:10:47;4.30;99.90
5962;DHT22;3007;50.770;0.250;2023-02-26T09:13:15;4.30;99.90
5962;DHT22;3007;50.770;0.250;2023-02-26T09:15:42;4.30;99.90
5962;DHT22;3007;50.770;0.250;2023-02-26T09:18:09;4.30;99.90
5962;DHT22;3007;50.770;0.250;2023-02-26T09:20:40;4.40;99.90
5962;DHT22;3007;50.770;0.250;2023-02-26T09:23:07;4.40;99.90
5962;DHT22;3007;50.770;0.250;2023-02-26T09:25:34;4.50;99.90
5962;DHT22;3007;50.770;0.250;2023-02-26T09:28:01;4.50;99.90
5962;DHT22;3007;50.770;0.250;2023-02-26T09:30:30;4.60;99.90
5962;DHT22;3007;50.770;0.250;2023-02-26T09:32:57;4.70;99.90
5962;DHT22;3007;50.770;0.250;2023-02-26T09:35:24;4.70;99.90
5962;DHT22;3007;50.770;0.250;2023-02-26T09:37:51;4.90;99.90
5962;DHT22;3007;50.770;0.250;2023-02-26T09:40:24;5.00;99.90
5962;DHT22;3007;50.770;0.250;2023-02-26T09:43:05;5.30;99.90
5962;DHT22;3007;50.770;0.250;2023-02-26T09:45:36;5.50;99.90
5962;DHT22;3007;50.770;0.250;2023-02-26T09:48:05;5.70;99.90
5962;DHT22;3007;50.770;0.250;2023-02-26T09:50:39;6.00;99.90
5962;DHT22;3007;50.770;0.250;2023-02-26T09:53:13;6.10;99.90
5962;DHT22;3007;50.770;0.250;2023-02-26T09:55:44;6.30;99.90
5962;DHT22;3007;50.770;0.250;2023-02-26T09:58:17;6.40;1.00
5962;DHT22;3007;50.770;0.250;2023-02-26T10:00:52;6.30;1.00
5962;DHT22;3007;50.770;0.250;2023-02-26T10:03:28;6.30;38.80
5962;DHT22;3007;50.770;0.250;2023-02-26T10:06:11;6.30;22.90
5962;DHT22;3007;50.770;0.250;2023-02-26T10:08:46;6.40;56.00
5962;DHT22;3007;50.770;0.250;2023-02-26T10:11:22;6.50;18.60
5962;DHT22;3007;50.770;0.250;2023-02-26T10:13:55;6.40;1.00
5962;DHT22;3007;50.770;0.250;2023-02-26T10:16:27;6.30;1.00
5962;DHT22;3007;50.770;0.250;2023-02-26T10:19:00;6.30;1.00
5962;DHT22;3007;50.770;0.250;2023-02-26T10:21:33;6.20;1.00
5962;DHT22;3007;50.770;0.250;2023-02-26T10:24:06;6.30;1.00
5962;DHT22;3007;50.770;0.250;2023-02-26T10:26:39;6.30;1.00
5962;DHT22;3007;50.770;0.250;2023-02-26T10:29:15;6.40;1.00
5962;DHT22;3007;50.770;0.250;2023-02-26T10:32:02;6.40;1.00
5962;DHT22;3007;50.770;0.250;2023-02-26T10:34:35;6.40;1.00
5962;DHT22;3007;50.770;0.250;2023-02-26T10:37:08;6.50;1.00
5962;DHT22;3007;50.770;0.250;2023-02-26T10:39:46;6.60;1.00
5962;DHT22;3007;50.770;0.250;2023-02-26T10:42:17;6.60;1.00
5962;DHT22;3007;50.770;0.250;2023-02-26T10:44:51;6.70;1.00
5962;DHT22;3007;50.770;0.250;2023-02-26T10:47:28;6.80;1.00
5962;DHT22;3007;50.770;0.250;2023-02-26T10:50:01;6.80;1.00
5962;DHT22;3007;50.770;0.250;2023-02-26T10:52:31;6.70;1.00
5962;DHT22;3007;50.770;0.250;2023-02-26T10:55:07;6.70;1.00
5962;DHT22;3007;50.770;0.250;2023-02-26T10:57:46;6.70;1.00
5962;DHT22;3007;50.770;0.250;2023-02-26T11:00:19;6.70;1.00
5962;DHT22;3007;50.770;0.250;2023-02-26T11:02:49;6.70;1.00
5962;DHT22;3007;50.770;0.250;2023-02-26T11:05:19;6.70;1.00
5962;DHT22;3007;50.770;0.250;2023-02-26T11:07:51;6.80;1.00
5962;DHT22;3007;50.770;0.250;2023-02-26T11:10:20;6.90;1.00
5962;DHT22;3007;50.770;0.250;2023-02-26T11:12:51;6.90;1.00
5962;DHT22;3007;50.770;0.250;2023-02-26T11:15:20;7.00;1.00
5962;DHT22;3007;50.770;0.250;2023-02-26T11:17:53;7.10;1.00
5962;DHT22;3007;50.770;0.250;2023-02-26T11:20:29;7.20;1.00
5962;DHT22;3007;50.770;0.250;2023-02-26T11:22:57;7.20;1.00
5962;DHT22;3007;50.770;0.250;2023-02-26T11:25:30;7.20;99.90
5962;DHT22;3007;50.770;0.250;2023-02-26T11:28:01;7.20;1.00
5962;DHT22;3007;50.770;0.250;2023-02-26T11:30:33;7.20;1.00
5962;DHT22;3007;50.770;0.250;2023-02-26T11:33:14;7.10;1.00
5962;DHT22;3007;50.770;0.250;2023-02-26T11:35:45;7.10;1.00
5962;DHT22;3007;50.770;0.250;2023-02-26T11:38:17;7.00;1.00
5962;DHT22;3007;50.770;0.250;2023-02-26T11:40:47;7.00;1.00
5962;DHT22;3007;50.770;0.250;2023-02-26T11:43:16;7.00;1.00
5962;DHT22;3007;50.770;0.250;2023-02-26T11:45:56;7.00;1.00
5962;DHT22;3007;50.770;0.250;2023-02-26T11:48:27;6.90;1.00
5962;DHT22;3007;50.770;0.250;2023-02-26T11:51:10;6.80;1.00
5962;DHT22;3007;50.770;0.250;2023-02-26T11:53:43;6.80;1.00
5962;DHT22;3007;50.770;0.250;2023-02-26T11:56:18;6.70;1.00
5962;DHT22;3007;50.770;0.250;2023-02-26T11:58:45;6.50;1.00
5962;DHT22;3007;50.770;0.250;2023-02-26T12:01:13;6.50;1.00
5962;DHT22;3007;50.770;0.250;2023-02-26T12:03:46;6.30;1.00
5962;DHT22;3007;50.770;0.250;2023-02-26T12:06:17;6.30;1.00
5962;DHT22;3007;50.770;0.250;2023-02-26T12:08:45;6.10;1.00
5962;DHT22;3007;50.770;0.250;2023-02-26T12:14:47;5.80;91.60
5962;DHT22;3007;50.770;0.250;2023-02-26T12:17:28;5.80;97.30
5962;DHT22;3007;50.770;0.250;2023-02-26T12:20:12;5.70;91.00
5962;DHT22;3007;50.770;0.250;2023-02-26T12:22:50;5.60;72.20
5962;DHT22;3007;50.770;0.250;2023-02-26T12:25:44;5.60;74.80
5962;DHT22;3007;50.770;0.250;2023-02-26T12:34:25;5.90;99.90
5962;DHT22;3007;50.770;0.250;2023-02-26T12:40:04;6.20;99.90
5962;DHT22;3007;50.770;0.250;2023-02-26T12:42:46;6.20;99.90
5962;DHT22;3007;50.770;0.250;2023-02-26T12:45:28;6.00;99.90
5962;DHT22;3007;50.770;0.250;2023-02-26T12:48:24;5.80;99.90
5962;DHT22;3007;50.770;0.250;2023-02-26T12:51:01;5.80;99.90
5962;DHT22;3007;50.770;0.250;2023-02-26T12:53:44;5.80;99.90
5962;DHT22;3007;50.770;0.250;2023-02-26T12:56:32;5.90;99.90
5962;DHT22;3007;50.770;0.250;2023-02-26T12:59:12;5.90;99.90
5962;DHT22;3007;50.770;0.250;2023-02-26T13:01:53;5.90;99.90
5962;DHT22;3007;50.770;0.250;2023-02-26T13:07:36;5.90;99.90
5962;DHT22;3007;50.770;0.250;2023-02-26T13:10:14;5.70;99.90
5962;DHT22;3007;50.770;0.250;2023-02-26T13:12:49;5.60;99.90
5962;DHT22;3007;50.770;0.250;2023-02-26T13:15:32;5.50;99.90
5962;DHT22;3007;50.770;0.250;2023-02-26T13:18:07;5.40;99.90
5962;DHT22;3007;50.770;0.250;2023-02-26T13:20:36;5.50;99.90
5962;DHT22;3007;50.770;0.250;2023-02-26T13:23:13;5.70;99.90
5962;DHT22;3007;50.770;0.250;2023-02-26T13:25:47;5.90;99.90
5962;DHT22;3007;50.770;0.250;2023-02-26T13:28:22;6.00;99.90
5962;DHT22;3007;50.770;0.250;2023-02-26T13:30:52;6.10;99.90
5962;DHT22;3007;50.770;0.250;2023-02-26T13:33:24;6.20;99.90
5962;DHT22;3007;50.770;0.250;2023-02-26T13:35:54;6.20;99.90
5962;DHT22;3007;50.770;0.250;2023-02-26T13:38:28;6.20;99.90
5962;DHT22;3007;50.770;0.250;2023-02-26T13:41:06;6.20;99.90
5962;DHT22;3007;50.770;0.250;2023-02-26T13:43:44;6.30;99.90
5962;DHT22;3007;50.770;0.250;2023-02-26T13:46:28;6.30;99.90
5962;DHT22;3007;50.770;0.250;2023-02-26T13:49:03;6.40;99.90
5962;DHT22;3007;50.770;0.250;2023-02-26T13:51:38;6.50;99.90
5962;DHT22;3007;50.770;0.250;2023-02-26T13:54:08;6.60;99.90
5962;DHT22;3007;50.770;0.250;2023-02-26T13:56:52;6.60;99.90
5962;DHT22;3007;50.770;0.250;2023-02-26T14:02:42;6.60;99.90
5962;DHT22;3007;50.770;0.250;2023-02-26T14:05:33;6.70;99.90
5962;DHT22;3007;50.770;0.250;2023-02-26T14:08:17;6.80;99.90
5962;DHT22;3007;50.770;0.250;2023-02-26T14:10:52;6.80;99.90
5962;DHT22;3007;50.770;0.250;2023-02-26T14:13:31;6.70;99.90
5962;DHT22;3007;50.770;0.250;2023-02-26T14:15:59;6.80;99.90
5962;DHT22;3007;50.770;0.250;2023-02-26T14:18:34;6.70;99.90
5962;DHT22;3007;50.770;0.250;2023-02-26T14:21:34;6.70;99.90
5962;DHT22;3007;50.770;0.250;2023-02-26T14:24:04;6.80;99.90
5962;DHT22;3007;50.770;0.250;2023-02-26T14:26:35;6.80;99.90
5962;DHT22;3007;50.770;0.250;2023-02-26T14:29:15;6.80;99.90
5962;DHT22;3007;50.770;0.250;2023-02-26T14:32:02;6.80;99.90
5962;DHT22;3007;50.770;0.250;2023-02-26T14:34:31;6.70;99.90
5962;DHT22;3007;50.770;0.250;2023-02-26T14:37:05;6.60;99.90
5962;DHT22;3007;50.770;0.250;2023-02-26T14:39:36;6.60;99.90
5962;DHT22;3007;50.770;0.250;2023-02-26T14:42:06;6.50;99.90
5962;DHT22;3007;50.770;0.250;2023-02-26T14:44:40;6.50;99.90
5962;DHT22;3007;50.770;0.250;2023-02-26T14:47:08;6.50;99.90
5962;DHT22;3007;50.770;0.250;2023-02-26T14:49:38;6.50;99.90
5962;DHT22;3007;50.770;0.250;2023-02-26T14:55:26;6.30;99.90
5962;DHT22;3007;50.770;0.250;2023-02-26T14:58:06;6.20;99.90
5962;DHT22;3007;50.770;0.250;2023-02-26T15:00:43;6.10;99.90
5962;DHT22;3007;50.770;0.250;2023-02-26T15:03:42;6.20;99.90
5962;DHT22;3007;50.770;0.250;2023-02-26T15:06:28;6.30;99.90
5962;DHT22;3007;50.770;0.250;2023-02-26T15:09:12;6.40;35.50
5962;DHT22;3007;50.770;0.250;2023-02-26T15:12:01;6.50;72.30
5962;DHT22;3007;50.770;0.250;2023-02-26T15:17:47;6.50;34.00
5962;DHT22;3007;50.770;0.250;2023-02-26T15:20:23;6.50;61.90
5962;DHT22;3007;50.770;0.250;2023-02-26T15:23:07;6.40;59.30
5962;DHT22;3007;50.770;0.250;2023-02-26T15:25:38;6.40;27.00
5962;DHT22;3007;50.770;0.250;2023-02-26T15:28:10;6.40;28.10
5962;DHT22;3007;50.770;0.250;2023-02-26T15:30:40;6.30;32.40
5962;DHT22;3007;50.770;0.250;2023-02-26T15:33:12;6.30;35.90
5962;DHT22;3007;50.770;0.250;2023-02-26T15:35:42;6.30;7.40
5962;DHT22;3007;50.770;0.250;2023-02-26T15:38:09;6.30;21.10
5962;DHT22;3007;50.770;0.250;2023-02-26T15:40:36;6.30;39.20
5962;DHT22;3007;50.770;0.250;2023-02-26T15:43:05;6.20;3.80
5962;DHT22;3007;50.770;0.250;2023-02-26T15:45:37;6.30;20.40
5962;DHT22;3007;50.770;0.250;2023-02-26T15:48:08;6.30;42.10
5962;DHT22;3007;50.770;0.250;2023-02-26T15:50:40;6.30;15.10
5962;DHT22;3007;50.770;0.250;2023-02-26T15:53:11;6.30;4.60
5962;DHT22;3007;50.770;0.250;2023-02-26T15:55:42;6.20;7.80
5962;DHT22;3007;50.770;0.250;2023-02-26T15:58:14;6.20;1.00
5962;DHT22;3007;50.770;0.250;2023-02-26T16:00:51;6.20;4.20
5962;DHT22;3007;50.770;0.250;2023-02-26T16:03:24;6.20;4.70
5962;DHT22;3007;50.770;0.250;2023-02-26T16:05:54;6.10;1.00
5962;DHT22;3007;50.770;0.250;2023-02-26T16:08:22;6.10;1.00
5962;DHT22;3007;50.770;0.250;2023-02-26T16:10:51;6.10;1.70
5962;DHT22;3007;50.770;0.250;2023-02-26T16:13:25;6.00;5.70
5962;DHT22;3007;50.770;0.250;2023-02-26T16:15:57;6.00;3.60
5962;DHT22;3007;50.770;0.250;2023-02-26T16:18:24;5.90;1.00
5962;DHT22;3007;50.770;0.250;2023-02-26T16:20:55;5.90;1.00
5962;DHT22;3007;50.770;0.250;2023-02-26T16:23:27;5.90;1.00
5962;DHT22;3007;50.770;0.250;2023-02-26T16:25:58;6.00;16.40
5962;DHT22;3007;50.770;0.250;2023-02-26T16:28:29;6.00;14.60
5962;DHT22;3007;50.770;0.250;2023-02-26T16:30:58;6.00;1.00
5962;DHT22;3007;50.770;0.250;2023-02-26T16:33:26;6.00;1.00
5962;DHT22;3007;50.770;0.250;2023-02-26T16:36:04;6.00;13.00
5962;DHT22;3007;50.770;0.250;2023-02-26T16:38:44;5.90;41.50
5962;DHT22;3007;50.770;0.250;2023-02-26T16:41:12;5.80;35.10
5962;DHT22;3007;50.770;0.250;2023-02-26T16:43:50;5.70;43.40
5962;DHT22;3007;50.770;0.250;2023-02-26T16:46:23;5.60;52.20
5962;DHT22;3007;50.770;0.250;2023-02-26T16:48:53;5.60;68.30
5962;DHT22;3007;50.770;0.250;2023-02-26T16:51:24;5.50;81.70
5962;DHT22;3007;50.770;0.250;2023-02-26T16:53:54;5.50;86.60
5962;DHT22;3007;50.770;0.250;2023-02-26T16:56:26;5.40;90.20
5962;DHT22;3007;50.770;0.250;2023-02-26T16:59:03;5.40;91.00
5962;DHT22;3007;50.770;0.250;2023-02-26T17:01:34;5.30;92.90
5962;DHT22;3007;50.770;0.250;2023-02-26T17:04:02;5.20;96.40
5962;DHT22;3007;50.770;0.250;2023-02-26T17:06:34;5.10;99.90
5962;DHT22;3007;50.770;0.250;2023-02-26T17:09:05;5.10;99.90
5962;DHT22;3007;50.770;0.250;2023-02-26T17:11:38;5.00;99.90
5962;DHT22;3007;50.770;0.250;2023-02-26T17:14:13;4.90;99.90
5962;DHT22;3007;50.770;0.250;2023-02-26T17:16:44;4.90;99.90